ADDS METAR Data INFO
IDs: Format: Raw Decoded Include TAF

Data at: 2344 UTC 15 Dec 2017

KHEZ 152256Z AUTO 32003KT 10SM CLR 07/M02 A3024 RMK AO2 SLP246 T00671017
KHEZ 152156Z AUTO 36004KT 10SM CLR 08/M02 A3023 RMK AO2 SLP243 T00781022
KHEZ 152056Z AUTO 36005KT 10SM CLR 08/M02 A3023 RMK AO2 SLP242 T00781017 56018
KHEZ 151956Z AUTO 34007KT 10SM CLR 08/M02 A3024 RMK AO2 SLP244 T00781017
KHEZ 151856Z AUTO VRB04KT 10SM CLR 08/M02 A3024 RMK AO2 SLP246 T00781017
KHEZ 151756Z AUTO 01004KT 10SM CLR 07/M01 A3028 RMK AO2 SLP260 T00721011 10072 20039 50005
KHEZ 151656Z AUTO 36006KT 10SM CLR 07/M01 A3030 RMK AO2 SLP265 T00671011
KHEZ 151556Z AUTO 05005KT 10SM SCT120 06/00 A3031 RMK AO2 SLP267 T00610000
KHEZ 151456Z AUTO 34004KT 10SM CLR 05/01 A3027 RMK AO2 SLP255 T00500006 53027
KHEZ 151356Z AUTO 36005KT 10SM CLR 04/00 A3022 RMK AO2 SLP237 T00390000
KHEZ 151256Z AUTO 01005KT 10SM CLR 04/00 A3019 RMK AO2 SLP227 T00390000
KHEZ 151156Z AUTO 36005KT 10SM CLR 04/01 A3019 RMK AO2 SLP227 T00390006 10061 20039 53017
KHEZ 151056Z AUTO 36005KT 10SM CLR 04/01 A3016 RMK AO2 SLP219 T00390011
KHEZ 150956Z AUTO 35006KT 10SM CLR 04/02 A3014 RMK AO2 SLP211 T00440017
KHEZ 150856Z AUTO 01004KT 10SM CLR 04/02 A3014 RMK AO2 SLP209 T00440017 53015
KHEZ 150756Z AUTO 36004KT 10SM CLR 05/02 A3012 RMK AO2 SLP205 T00500022
KHEZ 150656Z AUTO 36004KT 10SM CLR 06/03 A3010 RMK AO2 SLP197 T00560028
KHEZ 150556Z AUTO 01004KT 10SM CLR 06/03 A3009 RMK AO2 SLP195 T00560028 10089 20044 51012
KHEZ 150456Z AUTO 01004KT 10SM CLR 05/03 A3009 RMK AO2 SLP194 T00500033 401280028
KHEZ 150356Z AUTO 00000KT 10SM CLR 05/04 A3009 RMK AO2 SLP194 T00500039
KHEZ 150256Z AUTO 00000KT 10SM CLR 06/04 A3006 RMK AO2 SLP184 T00560044 51017
KHEZ 150156Z AUTO 00000KT 10SM CLR 07/04 A3005 RMK AO2 SLP179 T00670044
KHEZ 150056Z AUTO 00000KT 10SM CLR 08/05 A3003 RMK AO2 SLP174 T00780050
KHEZ 142356Z AUTO 00000KT 10SM CLR 09/05 A3001 RMK AO2 SLP167 T00890050 10128 20089 53010
KHEZ 142256Z AUTO 00000KT 10SM CLR 11/04 A3000 RMK AO2 SLP162 T01110044
KHEZ 142156Z AUTO 00000KT 10SM CLR 12/05 A2998 RMK AO2 SLP156 T01220050
KHEZ 142056Z AUTO 00000KT 10SM CLR 13/04 A2998 RMK AO2 SLP155 T01280039 55007
KHEZ 141956Z AUTO 00000KT 10SM CLR 13/04 A2997 RMK AO2 SLP153 T01280039
KHEZ 141856Z AUTO 17004KT 10SM CLR 13/03 A2997 RMK AO2 SLP154 T01280033
KHEZ 141756Z AUTO 00000KT 10SM CLR 12/03 A3000 RMK AO2 SLP162 T01220033 10122 20028 58005
KHEZ 141656Z AUTO 13004KT 10SM CLR 12/03 A3001 RMK AO2 SLP167 T01220033
KHEZ 141556Z AUTO 24003KT 10SM CLR 11/03 A3002 RMK AO2 SLP168 T01060033
KHEZ 141456Z AUTO 23005KT 10SM CLR 10/04 A3001 RMK AO2 SLP167 T01000039 51018
KHEZ 141356Z AUTO 00000KT 10SM CLR 05/03 A3000 RMK AO2 SLP164 T00500033
KHEZ 141256Z AUTO 17003KT 10SM CLR 03/02 A2998 RMK AO2 SLP155 T00280017
KHEZ 141156Z AUTO 17003KT 10SM CLR 03/02 A2996 RMK AO2 SLP150 7//// T00330022 10083 20028 58001